Latest Coastal Weather Observations for Lake Macquarie - Cooranbong

IDN60701

Issued at 2:32 am EDT Saturday 31 January 2015 (issued every 10 minutes, with the page automatically refreshed every 10 minutes)

About coastal observations | Map of coastal stations | Coastal observations for NSW | Marine services | Other Formats
Station Details ID: 061412 Name: LAKE MACQUARIE AWS Lat: -33.09 Lon: 151.46 Height: 6.0 m
Data from the previous 72 hours. | See also: Recent months at Lake Macquarie - Cooranbong
Date/Time
EDT
Temp

°C
Wind Pressure Rain
since 9am
mm
Weather Cloud Vis
km
Sea
Height
m
Swell
Dir
 
Speed
knots
Gust
knots
hPa Trend Height
m
Period
s
Dir
31/02:00am 14.4 CALM 0 0 1007.0 - 0.0 - - - - - - -
31/01:30am 14.7 CALM 0 0 1007.4 - 0.0 - - - - - - -
31/01:00am 15.0 CALM 0 0 1007.7 - 0.0 - - - - - - -
31/12:30am 15.3 CALM 0 0 1007.8 - 0.0 - - - - - - -
31/12:00am 15.4 CALM 0 0 1007.9 - 0.0 - - - - - - -
 
Date/Time
EDT
Temp

°C
Wind Pressure Rain
since 9am
mm
Weather Cloud Vis
km
Sea
Height
m
Swell
Dir
 
Speed
knots
Gust
knots
hPa Trend Height
m
Period
s
Dir
30/11:30pm 15.8 CALM 0 0 1008.0 - 0.0 - - - - - - -
30/11:00pm 15.9 CALM 0 0 1007.9 - 0.0 - - - - - - -
30/10:30pm 16.4 CALM 0 0 1007.8 - 0.0 - - - - - - -
30/10:00pm 17.3 CALM 0 0 1007.6 - 0.0 - - - - - - -
30/09:30pm 18.0 CALM 0 0 1007.5 - 0.0 - - - - - - -
30/09:00pm 18.7 CALM 0 0 1007.2 - 0.0 - - - - - - -
30/08:30pm 18.7 CALM 0 0 1006.8 - 0.0 - - - - - - -
30/08:00pm 19.9 CALM 0 0 1006.5 - 0.0 - - - - - - -
30/07:30pm 21.7 CALM 0 0 1006.1 - 0.0 - - - - - - -
30/07:00pm 22.2 CALM 0 0 1005.6 - 0.0 - - - - - - -
30/06:30pm 23.0 ESE 3 5 1005.3 - 0.0 - - - - - - -
30/06:00pm 23.5 E 2 5 1005.3 - 0.0 - - - - - - -
30/05:30pm 24.4 E 3 5 1005.3 - 0.0 - - - - - - -
30/05:00pm 24.4 ESE 5 7 1005.3 - 0.0 - - - - - - -
30/04:30pm 24.5 ESE 6 11 1005.2 - 0.0 - - - - - - -
30/04:00pm 26.6 WSW 4 8 1005.3 - 0.0 - - - - - - -
30/03:30pm 25.8 SW 3 8 1005.5 - 0.0 - - - - - - -
30/03:00pm 25.2 SSW 4 7 1005.6 - 0.0 - - - - - - -
30/02:30pm 25.6 SW 3 9 1006.0 - 0.0 - - - - - - -
30/02:00pm 25.2 W 5 10 1006.3 - 0.0 - - - - - - -
30/01:30pm 25.3 W 6 11 1006.7 - 0.0 - - - - - - -
30/01:00pm 24.7 W 6 13 1007.0 - 0.0 - - - - - - -
30/12:30pm 24.2 WNW 4 10 1007.6 - 0.0 - - - - - - -
30/12:00pm 23.6 WSW 4 7 1008.1 - 0.0 - - - - - - -
30/11:30am 22.8 W 7 13 1008.9 - 0.0 - - - - - - -
30/11:00am 21.9 SW 3 6 1009.1 - 0.0 - - - - - - -
30/10:30am 21.3 WSW 4 8 1009.6 - 0.0 - - - - - - -
30/10:00am 20.6 W 4 7 1009.5 - 0.0 - - - - - - -
30/09:30am 19.9 WSW 6 10 1009.8 - 0.0 - - - - - - -
30/09:00am 19.1 WSW 5 9 1009.9 - 0.0 - - - - - - -
30/08:30am 18.0 SW 5 10 1009.9 - 0.0 - - - - - - -
30/08:00am 16.3 CALM 0 0 1010.0 - 0.0 - - - - - - -
30/07:30am 13.1 CALM 0 0 1009.8 - 0.0 - - - - - - -
30/07:00am 11.2 CALM 0 0 1009.7 - 0.0 - - - - - - -
30/06:30am 10.6 CALM 0 0 1009.6 - 0.0 - - - - - - -
30/06:00am 10.7 CALM 0 0 1009.4 - 0.0 - - - - - - -
30/05:30am 10.8 CALM 0 0 1009.3 - 0.0 - - - - - - -
30/05:00am 11.2 CALM 0 0 1009.4 - 0.0 - - - - - - -
30/04:30am 11.4 CALM 0 0 1009.5 - 0.0 - - - - - - -
30/04:00am 11.7 CALM 0 0 1009.6 - 0.0 - - - - - - -
30/03:30am 11.9 CALM 0 0 1009.8 - 0.0 - - - - - - -
30/03:00am 12.0 CALM 0 0 1010.1 - 0.0 - - - - - - -
30/02:30am 12.3 CALM 0 0 1010.2 - 0.0 - - - - - - -
30/02:00am 12.7 CALM 0 0 1010.5 - 0.0 - - - - - - -
30/01:30am 13.0 NNE 1 2 1010.7 - 0.0 - - - - - - -
30/01:00am 13.2 N 1 2 1011.0 - 0.0 - - - - - - -
30/12:30am 13.3 CALM 0 1 1011.2 - 0.0 - - - - - - -
30/12:00am 13.5 CALM 0 0 1011.5 - 0.0 - - - - - - -
 
Date/Time
EDT
Temp

°C
Wind Pressure Rain
since 9am
mm
Weather Cloud Vis
km
Sea
Height
m
Swell
Dir
 
Speed
knots
Gust
knots
hPa Trend Height
m
Period
s
Dir
29/11:30pm 13.9 N 1 1 1011.7 - 0.0 - - - - - - -
29/11:00pm 14.4 CALM 0 0 1011.9 - 0.0 - - - - - - -
29/10:30pm 14.9 WSW 1 2 1012.0 - 0.0 - - - - - - -
29/10:00pm 16.4 CALM 0 4 1011.9 - 0.0 - - - - - - -
29/09:30pm 17.1 CALM 0 2 1011.8 - 0.0 - - - - - - -
29/09:00pm 17.8 WSW 2 4 1011.7 - 0.0 - - - - - - -
29/08:30pm 18.6 SSW 1 5 1011.5 - 0.0 - - - - - - -
29/08:00pm 19.3 SSW 3 7 1011.1 - 0.0 - - - - - - -
29/07:30pm 20.4 S 2 5 1010.9 - 0.0 - - - - - - -
29/07:00pm 20.9 S 7 15 1010.6 - 0.0 - - - - - - -
29/06:30pm 21.4 SSE 6 12 1010.4 - 0.0 - - - - - - -
29/06:00pm 21.7 SSE 7 13 1009.9 - 0.0 - - - - - - -
29/05:30pm 21.6 SE 7 12 1009.9 - 0.0 - - - - - - -
29/05:00pm 22.1 SSE 6 14 1010.2 - 0.0 - - - - - - -
29/04:30pm 22.2 SE 8 13 1010.3 - 0.0 - - - - - - -
29/04:00pm 21.8 S 7 13 1010.5 - 0.0 - - - - - - -
29/03:30pm 22.1 SE 6 12 1010.5 - 0.0 - - - - - - -
29/03:00pm 21.3 SE 8 13 1010.6 - 0.0 - - - - - - -
29/02:30pm 23.1 SSW 5 10 1011.0 - 0.0 - - - - - - -
29/02:00pm 23.3 SSW 5 11 1011.2 - 0.0 - - - - - - -
29/01:30pm 22.8 SSW 5 11 1011.3 - 0.0 - - - - - - -
29/01:00pm 22.5 SSW 5 14 1011.7 - 0.0 - - - - - - -
29/12:30pm 22.3 SSW 5 9 1012.0 - 0.0 - - - - - - -
29/12:00pm 21.7 SW 6 13 1012.2 - 0.0 - - - - - - -
29/11:30am 21.9 SSW 5 11 1012.2 - 0.0 - - - - - - -
29/11:00am 21.0 SW 7 13 1012.5 - 0.0 - - - - - - -
29/10:30am 20.3 SSW 7 15 1012.8 - 0.0 - - - - - - -
29/10:00am 20.4 SSW 4 8 1012.8 - 0.0 - - - - - - -
29/09:30am 19.3 SSW 5 12 1012.9 - 0.0 - - - - - - -
29/09:00am 18.8 SSW 5 11 1012.9 - 8.4 - - - - - - -
29/08:30am 18.1 SW 5 9 1013.0 - 8.4 - - - - - - -
29/08:00am 17.4 SW 5 10 1012.9 - 8.4 - - - - - - -
29/07:30am 16.7 SW 3 7 1012.5 - 8.4 - - - - - - -
29/07:00am 15.9 SW 3 7 1012.3 - 8.4 - - - - - - -
29/06:30am 15.4 WSW 4 8 1011.9 - 8.4 - - - - - - -
29/06:00am 15.4 WSW 4 9 1011.6 - 8.4 - - - - - - -
29/05:30am 15.6 WSW 3 5 1011.5 - 8.4 - - - - - - -
29/05:00am 16.0 WSW 4 8 1011.3 - 8.4 - - - - - - -
29/04:30am 16.0 SW 3 5 1011.3 - 8.4 - - - - - - -
29/04:00am 16.3 WSW 2 5 1011.5 - 8.4 - - - - - - -
29/03:30am 16.4 SW 4 10 1011.6 - 8.4 - - - - - - -
29/03:00am 16.5 SW 5 8 1011.7 - 8.4 - - - - - - -
29/02:30am 16.6 SW 4 13 1012.0 - 8.4 - - - - - - -
29/02:00am 16.7 WSW 3 7 1012.2 - 8.4 - - - - - - -
29/01:30am 16.7 SW 4 7 1012.2 - 8.4 - - - - - - -
29/01:00am 16.6 SW 2 4 1012.6 - 8.4 - - - - - - -
29/12:30am 16.8 SSW 2 5 1012.8 - 8.4 - - - - - - -
29/12:00am 17.0 SW 3 7 1012.9 - 8.4 - - - - - - -
 
Date/Time
EDT
Temp

°C
Wind Pressure Rain
since 9am
mm
Weather Cloud Vis
km
Sea
Height
m
Swell
Dir
 
Speed
knots
Gust
knots
hPa Trend Height
m
Period
s
Dir
28/11:30pm 17.0 WSW 2 5 1013.1 - 8.4 - - - - - - -
28/11:00pm 17.1 WSW 1 3 1013.3 - 8.4 - - - - - - -
28/10:30pm 17.1 SW 1 3 1013.6 - 8.4 - - - - - - -
28/10:00pm 17.2 WSW 2 4 1013.6 - 8.4 - - - - - - -
28/09:30pm 17.3 WSW 2 4 1013.7 - 8.4 - - - - - - -
28/09:00pm 17.2 SW 1 3 1013.6 - 8.2 Recent precip. - - - - - -
28/08:30pm 17.2 SSW 1 3 1013.6 - 8.0 - - - - - - -
28/08:00pm 17.4 W 3 4 1013.2 - 7.8 - - - - - - -
28/07:30pm 17.6 SW 3 7 1013.6 - 7.6 - - - - - - -
28/07:00pm 18.7 SSW 3 5 1013.1 - 7.2 - - - - - - -
28/06:30pm 18.9 SW 2 5 1012.5 - 7.2 - - - - - - -
28/06:00pm 19.2 WSW 3 6 1012.5 - 7.2 - - - - - - -
28/05:30pm 19.0 SSW 4 7 1012.8 - 7.2 - - - - - - -
28/05:00pm 20.1 SSW 3 5 1012.7 - 7.2 - - - - - - -
28/04:30pm 20.4 SSW 4 5 1012.8 - 7.2 - - - - - - -
28/04:00pm 20.6 S 4 8 1012.9 - 7.2 - - - - - - -
28/03:30pm 20.7 SSW 4 7 1012.9 - 7.2 - - - - - - -
28/03:00pm 19.9 S 2 4 1013.3 - 7.2 Recent precip. - - - - - -
28/02:30pm 20.5 S 4 8 1013.3 - 6.6 - - - - - - -
28/02:00pm 20.6 SSW 4 9 1013.4 - 6.6 - - - - - - -
28/01:30pm 20.7 SSW 4 7 1013.5 - 6.6 - - - - - - -
28/01:00pm 20.9 SSE 5 11 1013.5 - 6.6 - - - - - - -
28/12:30pm 20.8 SSE 8 14 1013.4 - 6.6 - - - - - - -
28/12:00pm 21.1 S 3 6 1013.4 - 6.6 - - - - - - -
28/11:30am 20.7 SW 3 6 1013.3 - 6.6 - - - - - - -
28/11:00am 19.0 WSW 2 4 1013.4 - 6.6 - - - - - - -
28/10:30am 18.3 WSW 1 3 1013.4 - 6.6 - - - - - - -
28/10:00am 17.8 S 4 9 1013.4 - 5.0 - - - - - - -
28/09:30am 18.2 SW 3 7 1012.8 - 1.4 - - - - - - -
28/09:00am 18.4 SW 2 5 1012.4 - 53.4 Recent precip. - - - - - -
28/08:30am 18.1 CALM 0 2 1012.3 - 53.2 - - - - - - -
28/08:00am 17.6 CALM 0 0 1012.1 - 52.6 - - - - - - -
28/07:30am 17.2 WSW 2 5 1011.9 - 51.4 - - - - - - -
28/07:00am 17.1 SW 2 4 1011.4 - 48.2 - - - - - - -
28/06:30am 17.2 WSW 2 3 1011.1 - 45.6 - - - - - - -
28/06:00am 17.3 SW 1 3 1010.8 - 42.8 Rain - - - - - -
28/05:30am 17.8 SW 3 6 1010.6 - 35.8 - - - - - - -
28/05:00am 18.0 SW 2 5 1010.2 - 31.8 - - - - - - -
28/04:30am 18.1 WSW 1 4 1010.3 - 31.6 - - - - - - -
28/04:00am 18.1 SSW 2 4 1010.4 - 31.4 - - - - - - -
28/03:30am 18.1 SW 2 3 1010.2 - 29.6 - - - - - - -
28/03:00am 18.2 SW 2 4 1010.5 - 29.0 Rain - - - - - -

Other Formats:

Comma delimited format used in spreadsheet applications
http://www.bom.gov.au/fwo/IDN60701/IDN60701.95767.axf

JavaScript Object Notation format (JSON) in row-major order
http://www.bom.gov.au/fwo/IDN60701/IDN60701.95767.json